Time;durP1;ratioP1;P1;durP2;ratioP2;P2;SDS_P1;SDS_P2;PMS_P1;PMS_P2;Temp;Humidity;BMP_temperature;BMP_pressure;BME280_temperature;BME280_humidity;BME280_pressure;Samples;Min_cycle;Max_cycle;Signal;HPM_P1;HPM_P2
2023/05/12 00:00:18;;;;;;;21.83;10.88;;;;;;;12.47;100.00;101460.88;5086040;28;20475;-70
2023/05/12 00:02:43;;;;;;;21.38;9.77;;;;;;;12.39;100.00;101454.63;5078272;28;20063;-70
2023/05/12 00:05:09;;;;;;;20.40;9.15;;;;;;;12.34;100.00;101459.03;5062754;28;20035;-74
2023/05/12 00:07:34;;;;;;;20.63;9.23;;;;;;;12.31;100.00;101459.00;5078069;28;20027;-73
2023/05/12 00:09:59;;;;;;;20.23;8.70;;;;;;;12.27;100.00;101451.91;5081631;28;20024;-70
2023/05/12 00:12:25;;;;;;;19.92;8.27;;;;;;;12.19;100.00;101452.72;5082109;28;20024;-73
2023/05/12 00:14:50;;;;;;;19.95;8.48;;;;;;;12.17;100.00;101454.50;5080030;28;20039;-71
2023/05/12 00:17:16;;;;;;;21.27;8.73;;;;;;;12.15;100.00;101455.34;5084536;28;20033;-71
2023/05/12 00:19:42;;;;;;;20.33;8.07;;;;;;;12.16;100.00;101452.72;5083477;28;20119;-70
2023/05/12 00:22:10;;;;;;;20.55;8.60;;;;;;;12.11;100.00;101454.41;5083846;28;20029;-72
2023/05/12 00:24:35;;;;;;;20.05;9.02;;;;;;;12.12;100.00;101445.59;5084240;28;20055;-71
2023/05/12 00:27:01;;;;;;;20.40;9.10;;;;;;;12.11;100.00;101449.13;5082182;28;20022;-71
2023/05/12 00:29:26;;;;;;;20.17;9.05;;;;;;;12.18;100.00;101450.94;5085454;28;20085;-75
2023/05/12 00:31:51;;;;;;;20.98;9.20;;;;;;;12.15;100.00;101444.75;5082044;28;20028;-70
2023/05/12 00:34:17;;;;;;;21.30;9.70;;;;;;;12.23;100.00;101443.00;5084676;28;20035;-67
2023/05/12 00:36:42;;;;;;;20.95;9.85;;;;;;;12.19;100.00;101447.44;5083097;28;20032;-67
2023/05/12 00:39:08;;;;;;;20.65;9.60;;;;;;;12.15;100.00;101444.75;5083009;28;20036;-67
2023/05/12 00:41:34;;;;;;;20.92;10.02;;;;;;;12.23;100.00;101444.78;5084104;28;20051;-67
2023/05/12 00:43:59;;;;;;;21.33;9.88;;;;;;;12.12;100.00;101448.25;5081747;28;20028;-68
2023/05/12 00:46:26;;;;;;;21.88;10.77;;;;;;;12.05;100.00;101446.44;5084853;28;20032;-68
2023/05/12 00:48:51;;;;;;;21.48;10.07;;;;;;;12.03;100.00;101442.91;5081834;28;20033;-67
2023/05/12 00:51:17;;;;;;;20.73;10.20;;;;;;;11.98;100.00;101442.84;5084306;28;20111;-67
2023/05/12 00:53:42;;;;;;;21.50;10.43;;;;;;;11.95;100.00;101439.28;5082762;28;20020;-68
2023/05/12 00:56:09;;;;;;;20.85;10.13;;;;;;;11.94;100.00;101440.16;5082882;28;20038;-68
2023/05/12 00:58:34;;;;;;;20.98;10.10;;;;;;;11.88;100.00;101442.72;5083752;28;20059;-67
2023/05/12 01:00:59;;;;;;;21.10;9.85;;;;;;;11.82;100.00;101436.53;5081730;28;20052;-67
2023/05/12 01:03:25;;;;;;;20.92;10.25;;;;;;;11.80;100.00;101437.38;5084733;28;20471;-67
2023/05/12 01:05:57;;;;;;;20.85;10.13;;;;;;;11.81;100.00;101450.63;5081581;28;20131;-67
2023/05/12 01:08:23;;;;;;;21.08;10.05;;;;;;;11.80;100.00;101432.06;5084524;28;20028;-67
2023/05/12 01:10:49;;;;;;;20.75;10.40;;;;;;;11.80;100.00;101427.66;5081838;28;20094;-68
2023/05/12 01:13:14;;;;;;;22.15;10.63;;;;;;;11.78;100.00;101426.75;5083264;28;20029;-67
2023/05/12 01:15:46;;;;;;;21.50;10.50;;;;;;;11.73;100.00;101431.13;5082764;28;20028;-70
2023/05/12 01:18:18;;;;;;;21.35;10.20;;;;;;;11.74;100.00;101430.25;5083016;28;20021;-70
2023/05/12 01:20:44;;;;;;;21.00;10.53;;;;;;;11.69;100.00;101427.56;5082375;28;20028;-72
2023/05/12 01:23:12;;;;;;;21.48;10.73;;;;;;;11.72;100.00;101420.50;5064441;28;20332;-72
2023/05/12 01:25:39;;;;;;;21.23;10.85;;;;;;;11.74;100.00;101422.31;5082933;28;20031;-70
2023/05/12 01:28:06;;;;;;;21.63;10.63;;;;;;;11.71;100.00;101418.72;5063912;28;20020;-70
2023/05/12 01:30:32;;;;;;;21.63;11.10;;;;;;;11.62;100.00;101415.16;5083759;28;20427;-70
2023/05/12 01:32:58;;;;;;;22.20;11.15;;;;;;;11.62;100.00;101417.78;5081011;28;20103;-70
2023/05/12 01:35:23;;;;;;;21.80;11.13;;;;;;;11.62;100.00;101411.59;5084707;28;20153;-70
2023/05/12 01:37:48;;;;;;;22.02;11.45;;;;;;;11.63;100.00;101416.03;5081719;28;20107;-70
2023/05/12 01:40:15;;;;;;;22.27;11.32;;;;;;;11.67;100.00;101418.69;5082944;28;20445;-70
2023/05/12 01:42:41;;;;;;;21.77;11.23;;;;;;;11.67;100.00;101415.19;5082556;28;20038;-72
2023/05/12 01:45:08;;;;;;;21.60;11.43;;;;;;;11.67;100.00;101417.81;5081742;28;20033;-70
2023/05/12 01:47:33;;;;;;;21.95;11.15;;;;;;;11.58;100.00;101409.81;5083489;28;20470;-70
2023/05/12 01:49:58;;;;;;;22.63;11.52;;;;;;;11.58;100.00;101412.47;5080730;28;20108;-71
2023/05/12 01:52:24;;;;;;;20.30;10.20;;;;;;;11.52;100.00;101413.28;5084092;28;20024;-70
2023/05/12 01:54:50;;;;;;;21.02;9.95;;;;;;;11.45;100.00;101414.97;5082466;28;20059;-71
2023/05/12 01:57:16;;;;;;;22.08;10.43;;;;;;;11.44;100.00;101409.66;5087157;28;20035;-66
2023/05/12 01:59:41;;;;;;;21.35;10.43;;;;;;;11.49;100.00;101406.19;5086405;28;20514;-66
2023/05/12 02:02:06;;;;;;;21.33;10.50;;;;;;;11.48;100.00;101404.41;5086393;28;20086;-66
2023/05/12 02:04:32;;;;;;;20.95;10.25;;;;;;;11.51;100.00;101408.84;5087718;28;20031;-67
2023/05/12 02:06:57;;;;;;;21.20;10.07;;;;;;;11.47;100.00;101407.91;5084766;28;20032;-66
2023/05/12 02:09:23;;;;;;;20.95;9.68;;;;;;;11.48;100.00;101407.06;5088134;28;20024;-66
2023/05/12 02:11:48;;;;;;;20.80;9.68;;;;;;;11.46;100.00;101408.81;5085084;28;20035;-67
2023/05/12 02:14:14;;;;;;;20.00;8.85;;;;;;;11.42;100.00;101399.06;5086603;28;20090;-67
2023/05/12 02:16:39;;;;;;;20.85;9.25;;;;;;;11.34;100.00;101406.94;5086763;28;20032;-66
2023/05/12 02:19:05;;;;;;;20.52;8.82;;;;;;;11.34;100.00;101403.38;5085095;28;20075;-67
2023/05/12 02:21:30;;;;;;;19.45;8.73;;;;;;;11.36;100.00;101396.38;5087882;28;20127;-66
2023/05/12 02:23:55;;;;;;;19.80;8.18;;;;;;;11.37;100.00;101389.31;5084319;28;20391;-66
2023/05/12 02:26:21;;;;;;;19.95;8.30;;;;;;;11.36;100.00;101383.13;5087188;28;20036;-67
2023/05/12 02:28:46;;;;;;;19.67;7.93;;;;;;;11.31;100.00;101395.41;5085435;28;20031;-66
2023/05/12 02:31:11;;;;;;;20.13;8.30;;;;;;;11.31;100.00;101391.03;5085817;28;20548;-66
2023/05/12 02:33:37;;;;;;;21.05;8.25;;;;;;;11.27;100.00;101386.56;5086261;28;20047;-66
2023/05/12 02:36:02;;;;;;;19.17;7.63;;;;;;;11.29;100.00;101383.94;5066657;28;20090;-66
2023/05/12 02:38:28;;;;;;;19.42;7.90;;;;;;;11.29;100.00;101381.28;5087497;28;20058;-67
2023/05/12 02:40:54;;;;;;;18.75;7.70;;;;;;;11.27;100.00;101380.38;5065724;28;20091;-67
2023/05/12 02:43:19;;;;;;;19.85;7.45;;;;;;;11.22;100.00;101384.75;5086838;28;20028;-66
2023/05/12 02:45:44;;;;;;;19.35;7.93;;;;;;;11.13;100.00;101375.84;5085065;28;20356;-66
2023/05/12 02:48:10;;;;;;;18.83;7.32;;;;;;;11.11;100.00;101379.31;5085258;28;20066;-67
2023/05/12 02:50:35;;;;;;;19.52;7.00;;;;;;;11.09;100.00;101371.38;5086469;28;20442;-67
2023/05/12 02:53:01;;;;;;;19.75;7.40;;;;;;;11.07;100.00;101375.78;5083925;28;20021;-69
2023/05/12 02:55:28;;;;;;;18.98;7.07;;;;;;;11.09;100.00;101374.03;5087380;28;20467;-67
2023/05/12 02:57:54;;;;;;;18.83;6.47;;;;;;;11.08;100.00;101374.00;5083941;28;20039;-66
2023/05/12 03:00:19;;;;;;;18.00;6.57;;;;;;;11.07;100.00;101365.19;5086367;28;20024;-70
2023/05/12 03:02:44;;;;;;;19.10;6.53;;;;;;;11.07;100.00;101364.31;5084977;28;20532;-70
2023/05/12 03:05:10;;;;;;;18.20;6.40;;;;;;;11.07;100.00;101367.84;5084997;28;20064;-71
2023/05/12 03:07:35;;;;;;;18.02;6.20;;;;;;;11.04;100.00;101365.16;5084757;28;20024;-71
2023/05/12 03:10:01;;;;;;;16.85;5.57;;;;;;;11.00;100.00;101358.06;5083814;28;20047;-70
2023/05/12 03:12:29;;;;;;;16.73;5.20;;;;;;;10.98;100.00;101355.41;5083916;28;20443;-70
2023/05/12 03:14:55;;;;;;;16.13;5.25;;;;;;;10.97;100.00;101360.69;5081621;28;20361;-70
2023/05/12 03:17:21;;;;;;;16.05;5.22;;;;;;;10.95;100.00;101349.16;5081551;28;20032;-69
2023/05/12 03:19:46;;;;;;;13.02;4.60;;;;;;;10.99;100.00;101356.28;5084035;28;20402;-76
2023/05/12 03:22:12;;;;;;;16.13;5.10;;;;;;;11.01;100.00;101348.34;5078942;28;20119;-72
2023/05/12 03:24:37;;;;;;;16.23;5.05;;;;;;;11.07;100.00;101345.78;5086811;28;20103;-70
2023/05/12 03:27:03;;;;;;;14.57;4.70;;;;;;;11.06;100.00;101338.72;5082961;28;20116;-70
2023/05/12 03:29:28;;;;;;;15.25;4.70;;;;;;;10.97;100.00;101344.81;5085833;28;20028;-71
2023/05/12 03:31:54;;;;;;;14.73;4.90;;;;;;;10.99;100.00;101332.47;5084595;28;20032;-70
2023/05/12 03:34:19;;;;;;;15.95;5.18;;;;;;;10.97;100.00;101336.88;5084389;28;20115;-70
2023/05/12 03:36:45;;;;;;;17.05;5.75;;;;;;;10.99;100.00;101335.13;5085757;28;20131;-70
2023/05/12 03:39:11;;;;;;;17.15;5.78;;;;;;;10.94;100.00;101336.84;5083345;28;20479;-70
2023/05/12 03:41:37;;;;;;;17.77;5.95;;;;;;;10.93;100.00;101340.34;5086354;28;20054;-66
2023/05/12 03:44:04;;;;;;;18.50;6.47;;;;;;;10.90;100.00;101329.72;5083144;28;20029;-68
2023/05/12 03:46:30;;;;;;;18.95;7.13;;;;;;;10.89;100.00;101335.88;5085956;28;20032;-70
2023/05/12 03:48:55;;;;;;;18.75;6.63;;;;;;;10.91;100.00;101332.41;5084099;28;20020;-67
2023/05/12 03:51:20;;;;;;;20.05;7.53;;;;;;;10.90;100.00;101329.72;5084342;28;20115;-66
2023/05/12 03:53:46;;;;;;;19.63;7.25;;;;;;;10.91;100.00;101323.59;5084936;28;20035;-66
2023/05/12 03:56:12;;;;;;;20.60;7.70;;;;;;;10.91;100.00;101326.22;5083034;28;20177;-66
2023/05/12 03:58:37;;;;;;;20.02;8.38;;;;;;;10.93;100.00;101327.13;5086174;28;20387;-66
2023/05/12 04:01:03;;;;;;;20.17;8.13;;;;;;;10.92;100.00;101325.34;5082839;28;20028;-69
2023/05/12 04:03:28;;;;;;;20.27;8.25;;;;;;;10.87;100.00;101324.41;5085138;28;20115;-66
2023/05/12 04:06:01;;;;;;;20.95;8.55;;;;;;;10.86;100.00;101327.94;5083612;28;20032;-67
2023/05/12 04:08:27;;;;;;;21.48;9.02;;;;;;;10.82;100.00;101327.91;5084743;28;20479;-66
2023/05/12 04:10:59;;;;;;;21.38;9.15;;;;;;;10.84;100.00;101325.25;5084022;28;20108;-68
2023/05/12 04:13:25;;;;;;;;;;;;;;;10.87;100.00;101324.41;5084815;28;20052;-66
2023/05/12 04:15:54;;;;;;;22.00;9.52;;;;;;;10.85;100.00;101326.13;5084096;28;20375;-66
2023/05/12 04:18:19;;;;;;;23.27;10.05;;;;;;;10.82;100.00;101321.72;5083160;28;20364;-69
2023/05/12 04:20:45;;;;;;;23.70;10.18;;;;;;;10.82;100.00;101319.09;5084493;28;20027;-66
2023/05/12 04:23:10;;;;;;;24.75;10.93;;;;;;;10.83;100.00;101323.47;5082320;28;20033;-66
2023/05/12 04:25:39;;;;;;;23.50;11.18;;;;;;;10.84;100.00;101327.91;5085478;28;20475;-66
2023/05/12 04:28:05;;;;;;;24.90;11.40;;;;;;;10.88;100.00;101321.78;5077931;28;20395;-67
2023/05/12 04:30:31;;;;;;;25.02;11.73;;;;;;;10.90;100.00;101321.81;5085041;28;20024;-66
2023/05/12 04:32:56;;;;;;;26.63;12.60;;;;;;;10.89;100.00;101322.66;5083087;28;20062;-66
2023/05/12 04:35:21;;;;;;;25.73;12.02;;;;;;;10.89;100.00;101325.31;5083602;28;20055;-66
2023/05/12 04:37:47;;;;;;;26.88;13.15;;;;;;;10.93;100.00;101324.47;5084151;28;20103;-66
2023/05/12 04:40:13;;;;;;;26.15;12.93;;;;;;;10.87;100.00;101322.66;5081996;28;20044;-66
2023/05/12 04:42:39;;;;;;;26.80;13.10;;;;;;;10.90;100.00;101319.16;5085442;28;20040;-67
2023/05/12 04:45:06;;;;;;;28.80;13.75;;;;;;;10.89;100.00;101322.66;5077441;28;20484;-66
2023/05/12 04:47:31;;;;;;;28.02;13.85;;;;;;;10.92;100.00;101328.88;5084569;28;20068;-66
2023/05/12 04:49:56;;;;;;;30.30;14.70;;;;;;;10.90;100.00;101329.72;5082659;28;20059;-68
2023/05/12 04:52:22;;;;;;;30.02;14.52;;;;;;;10.90;100.00;101332.38;5064960;28;20028;-68
2023/05/12 04:54:48;;;;;;;31.70;16.00;;;;;;;10.91;100.00;101337.69;5083848;28;20028;-66
2023/05/12 04:57:13;;;;;;;31.15;15.40;;;;;;;10.92;100.00;101333.28;5082047;28;20028;-69
2023/05/12 04:59:38;;;;;;;30.40;14.90;;;;;;;10.93;100.00;101329.75;5084706;28;20065;-67
2023/05/12 05:02:04;;;;;;;31.17;15.90;;;;;;;10.93;100.00;101340.34;5063338;28;20029;-67
2023/05/12 05:04:29;;;;;;;32.67;16.92;;;;;;;10.92;100.00;101338.56;5084057;28;20036;-78
2023/05/12 05:06:55;;;;;;;33.53;17.35;;;;;;;10.93;100.00;101340.34;5082614;28;20032;-66
2023/05/12 05:09:20;;;;;;;34.45;18.45;;;;;;;10.96;100.00;101337.72;5082821;28;20052;-70
2023/05/12 05:11:46;;;;;;;35.55;18.67;;;;;;;10.95;100.00;101347.44;5083741;28;20082;-74
2023/05/12 05:14:11;;;;;;;36.20;18.80;;;;;;;10.98;100.00;101346.59;5081297;28;20494;-71
2023/05/12 05:16:37;;;;;;;36.53;19.67;;;;;;;11.02;100.00;101345.72;5084682;28;20038;-69
2023/05/12 05:19:02;;;;;;;37.45;19.92;;;;;;;11.06;100.00;101346.66;5081241;28;20025;-66
2023/05/12 05:21:28;;;;;;;37.90;20.40;;;;;;;11.08;100.00;101351.09;5083440;28;20040;-67
2023/05/12 05:23:53;;;;;;;38.40;21.20;;;;;;;11.10;100.00;101349.34;5064867;28;20051;-68
2023/05/12 05:26:20;;;;;;;38.20;21.63;;;;;;;11.16;100.00;101354.69;5082062;28;20029;-67
2023/05/12 05:28:46;;;;;;;38.80;21.10;;;;;;;11.21;100.00;101353.84;5083183;28;20032;-67
2023/05/12 05:31:15;;;;;;;37.80;21.25;;;;;;;11.21;100.00;101367.09;5081065;28;20048;-68
2023/05/12 05:33:41;;;;;;;39.70;22.73;;;;;;;11.25;100.00;101363.59;5084175;28;20031;-68
2023/05/12 05:36:07;;;;;;;41.30;21.77;;;;;;;11.31;100.00;101361.00;5080781;28;20035;-70
2023/05/12 05:38:32;;;;;;;38.65;22.13;;;;;;;11.32;100.00;101357.50;5083904;28;20035;-66
2023/05/12 05:40:57;;;;;;;39.67;22.63;;;;;;;11.37;100.00;101368.13;5076983;28;20127;-70
2023/05/12 05:43:23;;;;;;;39.25;21.83;;;;;;;11.41;100.00;101367.28;5080726;28;20024;-83
2023/05/12 05:45:48;;;;;;;39.67;22.80;;;;;;;11.44;100.00;101372.59;5078389;28;20039;-83
2023/05/12 05:48:14;;;;;;;40.63;23.25;;;;;;;11.50;100.00;101375.31;5078223;28;20032;-84
2023/05/12 05:50:39;;;;;;;39.15;22.90;;;;;;;11.51;100.00;101372.66;5074900;28;20037;-84
2023/05/12 05:53:05;;;;;;;38.65;23.02;;;;;;;11.58;100.00;101378.91;5057423;28;20039;-78
2023/05/12 05:55:31;;;;;;;39.88;23.67;;;;;;;11.59;100.00;101374.50;5075493;28;20025;-83
2023/05/12 05:57:56;;;;;;;40.83;23.83;;;;;;;11.63;100.00;101389.53;5076300;28;20071;-70
2023/05/12 06:00:22;;;;;;;38.75;23.20;;;;;;;11.69;100.00;101392.22;5080516;28;20086;-69
2023/05/12 06:02:47;;;;;;;39.38;23.65;;;;;;;11.72;100.00;101394.03;5069769;28;20037;-69
2023/05/12 06:05:13;;;;;;;40.38;24.15;;;;;;;11.75;100.00;101383.47;5058085;28;20106;-69
2023/05/12 06:07:38;;;;;;;40.13;23.52;;;;;;;11.75;100.00;101388.75;5060396;28;20506;-70
2023/05/12 06:10:05;;;;;;;39.42;23.40;;;;;;;11.78;100.00;101392.31;5074961;28;20025;-70
2023/05/12 06:12:30;;;;;;;39.47;24.13;;;;;;;11.83;100.00;101390.59;5076898;28;20048;-70
2023/05/12 06:14:56;;;;;;;38.80;23.25;;;;;;;11.83;100.00;101401.19;5059362;28;20028;-70
2023/05/12 06:17:21;;;;;;;39.88;24.15;;;;;;;11.86;100.00;101402.97;5075011;28;20186;-71
2023/05/12 06:19:48;;;;;;;38.72;23.90;;;;;;;11.92;100.00;101404.78;5075377;28;20471;-69
2023/05/12 06:22:14;;;;;;;38.85;24.38;;;;;;;11.99;100.00;101411.94;5059617;28;20516;-70
2023/05/12 06:24:40;;;;;;;39.15;23.27;;;;;;;12.08;100.00;101419.06;5070874;28;20123;-81
2023/05/12 06:27:06;;;;;;;39.55;24.65;;;;;;;12.25;100.00;101427.16;5076882;28;20020;-86
2023/05/12 06:29:31;;;;;;;40.05;24.85;;;;;;;12.38;100.00;101426.34;5069813;28;20084;-78
2023/05/12 06:31:57;;;;;;;37.85;24.02;;;;;;;12.52;100.00;101423.75;5076806;28;20341;-81
2023/05/12 06:34:22;;;;;;;37.22;23.77;;;;;;;12.70;100.00;101434.47;5077751;28;20046;-83
2023/05/12 06:36:47;;;;;;;37.28;24.40;;;;;;;12.75;100.00;101428.31;5058132;28;20081;-83
2023/05/12 06:39:13;;;;;;;37.60;24.65;;;;;;;12.80;100.00;101424.81;5075388;28;20810;-83
2023/05/12 06:41:39;;;;;;;37.47;23.92;;;;;;;12.86;100.00;101427.47;5058173;28;20036;-80
2023/05/12 06:44:05;;;;;;;35.30;23.50;;;;;;;12.96;100.00;101433.72;5078659;28;20029;-85
2023/05/12 06:46:31;;;;;;;34.70;23.60;;;;;;;13.11;100.00;101435.53;5081900;28;20154;-78
2023/05/12 06:48:57;;;;;;;34.03;23.20;;;;;;;13.27;100.00;101435.59;5082507;28;20064;-78
2023/05/12 06:51:22;;;;;;;34.00;22.98;;;;;;;13.37;100.00;101432.09;5080758;28;20454;-75
2023/05/12 06:53:48;;;;;;;33.15;23.10;;;;;;;13.51;100.00;101424.13;5080533;28;20402;-79
2023/05/12 06:56:15;;;;;;;30.60;21.70;;;;;;;13.57;100.00;101430.38;5079612;28;20486;-70
2023/05/12 06:58:42;;;;;;;30.88;21.25;;;;;;;13.75;100.00;101436.56;5081503;28;20036;-71
2023/05/12 07:01:07;;;;;;;30.95;22.23;;;;;;;13.90;100.00;101447.19;5062511;28;20063;-70
2023/05/12 07:03:33;;;;;;;29.98;21.38;;;;;;;13.97;100.00;101441.91;5081753;28;20048;-70
2023/05/12 07:05:59;;;;;;;28.95;20.83;;;;;;;14.05;100.00;101449.00;5080025;28;20032;-68
2023/05/12 07:08:24;;;;;;;29.05;21.13;;;;;;;14.11;100.00;101437.44;5080922;28;20035;-68
2023/05/12 07:10:49;;;;;;;29.85;21.08;;;;;;;14.18;100.00;101440.97;5081203;28;20067;-68
2023/05/12 07:13:15;;;;;;;28.02;20.33;;;;;;;14.23;100.00;101442.75;5081378;28;20107;-67
2023/05/12 07:15:40;;;;;;;27.50;20.15;;;;;;;14.21;100.00;101448.97;5080740;28;20028;-70
2023/05/12 07:18:06;;;;;;;28.50;20.42;;;;;;;14.22;100.00;101450.72;5081454;28;20031;-69
2023/05/12 07:20:31;;;;;;;27.35;19.73;;;;;;;14.23;100.00;101448.06;5080880;28;20147;-68
2023/05/12 07:22:56;;;;;;;27.70;20.55;;;;;;;14.23;100.00;101449.84;5078481;28;20024;-68
2023/05/12 07:25:22;;;;;;;27.13;20.17;;;;;;;14.19;100.00;101450.75;5077818;28;20031;-67
2023/05/12 07:27:48;;;;;;;27.50;19.63;;;;;;;14.30;100.00;101454.28;5078253;28;20029;-70
2023/05/12 07:30:14;;;;;;;26.77;18.75;;;;;;;14.42;100.00;101453.38;5079383;28;20040;-68
2023/05/12 07:32:39;;;;;;;24.60;17.27;;;;;;;14.39;100.00;101453.38;5078962;28;20029;-67
2023/05/12 07:35:05;;;;;;;24.52;16.25;;;;;;;14.48;100.00;101445.38;5086032;28;20035;-68
2023/05/12 07:37:30;;;;;;;23.15;14.93;;;;;;;14.54;100.00;101448.00;5083978;28;20036;-69
2023/05/12 07:39:56;;;;;;;23.88;15.00;;;;;;;14.81;100.00;101451.53;5084674;28;20048;-68
2023/05/12 07:42:22;;;;;;;23.30;15.07;;;;;;;15.09;100.00;101448.75;5084885;28;20032;-69
2023/05/12 07:44:47;;;;;;;22.75;11.95;;;;;;;15.20;100.00;101438.91;5065634;28;20028;-68
2023/05/12 07:47:13;;;;;;;20.98;11.57;;;;;;;15.30;100.00;101447.75;5086067;28;20379;-68
2023/05/12 07:49:38;;;;;;;20.52;10.75;;;;;;;15.45;100.00;101449.41;5082845;28;20091;-68
2023/05/12 07:52:04;;;;;;;21.20;11.30;;;;;;;15.52;100.00;101451.16;5085078;28;20028;-68
2023/05/12 07:54:29;;;;;;;20.63;10.27;;;;;;;15.37;100.00;101454.81;5083392;28;20034;-68
2023/05/12 07:56:55;;;;;;;21.75;10.85;;;;;;;15.18;100.00;101456.69;5084432;28;20386;-68
2023/05/12 07:59:20;;;;;;;21.15;11.60;;;;;;;15.34;100.00;101462.81;5084813;28;20036;-67
2023/05/12 08:01:45;;;;;;;21.25;10.23;;;;;;;15.31;100.00;101462.84;5082865;28;20033;-69
2023/05/12 08:04:11;;;;;;;20.45;10.60;;;;;;;15.31;100.00;101458.38;5086114;28;20074;-68
2023/05/12 08:06:36;;;;;;;20.27;10.18;;;;;;;15.39;100.00;101460.13;5082411;28;20028;-68
2023/05/12 08:09:01;;;;;;;19.73;10.45;;;;;;;15.58;100.00;101459.13;5085013;28;20571;-69
2023/05/12 08:11:27;;;;;;;20.08;9.60;;;;;;;15.79;100.00;101466.09;5083843;28;20097;-69
2023/05/12 08:13:52;;;;;;;20.13;9.93;;;;;;;15.87;100.00;101468.69;5083352;28;20036;-68
2023/05/12 08:16:18;;;;;;;19.83;9.98;;;;;;;15.93;100.00;101467.78;5084879;28;20027;-74
2023/05/12 08:18:43;;;;;;;20.30;9.77;;;;;;;15.88;100.00;101473.16;5082617;28;20032;-70
2023/05/12 08:21:09;;;;;;;19.27;9.70;;;;;;;16.26;100.00;101479.06;5085589;28;20505;-68
2023/05/12 08:23:36;;;;;;;20.27;9.85;;;;;;;16.53;100.00;101475.25;5082711;28;20028;-67
2023/05/12 08:26:02;;;;;;;18.95;9.68;;;;;;;16.81;100.00;101466.94;5084401;28;20071;-67
2023/05/12 08:28:28;;;;;;;20.25;9.15;;;;;;;17.01;100.00;101472.94;5083138;28;20032;-68
2023/05/12 08:30:53;;;;;;;19.65;9.05;;;;;;;16.97;100.00;101479.22;5083760;28;20471;-67
2023/05/12 08:33:19;;;;;;;19.30;9.57;;;;;;;17.02;100.00;101474.72;5084326;28;20031;-68
2023/05/12 08:35:45;;;;;;;19.17;9.45;;;;;;;16.99;100.00;101482.75;5082089;28;20059;-68
2023/05/12 08:38:10;;;;;;;18.35;8.52;;;;;;;17.03;100.00;101480.94;5077717;28;20021;-68
2023/05/12 08:41:14;;;;;;;18.83;8.48;;;;;;;17.23;100.00;101478.88;5079400;28;20052;-68
2023/05/12 08:43:50;;;;;;;17.63;7.55;;;;;;;17.49;100.00;101487.44;5068466;28;20051;-68
2023/05/12 08:46:16;;;;;;;16.50;6.93;;;;;;;17.62;100.00;101474.78;5079996;28;20038;-68
2023/05/12 08:48:45;;;;;;;16.92;6.90;;;;;;;17.54;100.00;101485.59;5084060;28;20029;-68
2023/05/12 08:51:12;;;;;;;18.25;6.90;;;;;;;17.76;100.00;101488.81;5082683;28;20029;-68
2023/05/12 08:53:39;;;;;;;18.45;6.28;;;;;;;17.84;100.00;101484.25;5083395;28;20075;-68
2023/05/12 08:56:06;;;;;;;15.10;6.00;;;;;;;17.73;100.00;101489.75;5083364;28;20036;-68
2023/05/12 08:58:32;;;;;;;16.48;6.22;;;;;;;17.59;100.00;101494.41;5082398;28;20020;-68
2023/05/12 09:01:06;;;;;;;16.15;5.40;;;;;;;17.37;100.00;101485.81;5084416;28;20392;-67
2023/05/12 09:03:33;;;;;;;12.65;5.28;;;;;;;17.47;100.00;101491.94;5079948;28;20093;-68
2023/05/12 09:05:59;;;;;;;13.38;5.32;;;;;;;17.72;100.00;101490.69;5081637;28;20543;-67
2023/05/12 09:08:27;;;;;;;16.83;5.47;;;;;;;18.06;100.00;101491.97;5082474;28;20032;-68
2023/05/12 09:10:55;;;;;;;11.90;4.93;;;;;;;18.07;100.00;101489.28;5082530;28;20028;-67
2023/05/12 09:13:59;;;;;;;13.55;4.88;;;;;;;18.32;100.00;101504.00;5081951;28;20044;-71
2023/05/12 09:16:28;;;;;;;14.32;4.75;;;;;;;18.24;100.00;101493.44;5073010;28;20043;-84
2023/05/12 09:18:56;;;;;;;14.43;4.90;;;;;;;18.42;100.00;101493.13;5058265;28;20024;-81
2023/05/12 09:21:22;;;;;;;12.07;4.95;;;;;;;18.51;100.00;101496.53;5075813;28;20033;-81
2023/05/12 09:24:07;;;;;;;12.57;4.90;;;;;;;18.22;100.00;101497.94;5056310;28;20040;-83
2023/05/12 09:26:51;;;;;;;12.90;4.90;;;;;;;18.40;100.00;101502.94;5063344;28;20063;-80
2023/05/12 09:29:17;;;;;;;14.85;5.15;;;;;;;18.62;100.00;101500.78;5074130;28;20033;-81
2023/05/12 09:31:50;;;;;;;13.82;4.70;;;;;;;18.50;100.00;101497.47;5057522;28;20360;-79
2023/05/12 09:34:16;;;;;;;14.55;4.80;;;;;;;18.51;100.00;101494.75;5079372;28;20020;-83
2023/05/12 09:36:42;;;;;;;12.15;4.60;;;;;;;19.12;100.00;101508.75;5078223;28;20020;-81
2023/05/12 09:39:08;;;;;;;11.05;4.40;;;;;;;19.36;100.00;101500.22;5077784;28;20082;-82
2023/05/12 09:41:38;;;;;;;11.98;4.40;;;;;;;19.27;100.00;101502.19;5075713;28;20556;-81
2023/05/12 09:44:05;;;;;;;13.05;4.75;;;;;;;18.88;100.00;101494.06;5076162;28;20040;-77
2023/05/12 09:46:31;;;;;;;10.90;4.43;;;;;;;18.90;100.00;101504.75;5076034;28;20060;-77
2023/05/12 09:48:57;;;;;;;13.90;4.30;;;;;;;19.94;100.00;101503.41;5075503;28;20091;-77
2023/05/12 09:51:23;;;;;;;12.35;4.30;;;;;;;20.41;100.00;101509.34;5079645;28;20016;-77
2023/05/12 09:53:48;;;;;;;12.27;4.30;;;;;;;19.63;100.00;101504.97;5075192;28;20485;-77
2023/05/12 09:56:16;;;;;;;11.45;4.15;;;;;;;19.27;100.00;101506.69;5078999;28;20025;-78
2023/05/12 09:58:43;;;;;;;11.45;4.00;;;;;;;19.19;100.00;101516.66;5079475;28;20031;-71
2023/05/12 10:01:11;;;;;;;12.57;4.07;;;;;;;19.09;100.00;101510.59;5077936;28;20359;-74
2023/05/12 10:03:38;;;;;;;10.98;3.97;;;;;;;19.34;100.00;101509.19;5075250;28;20020;-75
2023/05/12 10:06:06;;;;;;;11.07;4.00;;;;;;;19.43;100.00;101516.13;5060987;28;20499;-73
2023/05/12 10:08:41;;;;;;;11.55;4.13;;;;;;;20.08;100.00;101516.47;5083347;28;20020;-75
2023/05/12 10:11:07;;;;;;;11.43;4.32;;;;;;;20.58;94.36;101527.72;5082122;28;20036;-71
2023/05/12 10:13:32;;;;;;;12.38;4.20;;;;;;;21.66;95.80;101523.78;5082780;28;20107;-78
2023/05/12 10:15:59;;;;;;;10.98;4.20;;;;;;;22.10;82.39;101525.03;5082169;28;20024;-73
2023/05/12 10:18:25;;;;;;;13.95;4.30;;;;;;;20.82;82.39;101530.69;5082820;28;20028;-83
2023/05/12 10:20:52;;;;;;;13.75;4.55;;;;;;;20.71;93.27;101526.50;5082109;28;20040;-79
2023/05/12 10:23:18;;;;;;;9.65;4.18;;;;;;;22.31;74.16;101519.88;5081464;28;20060;-84
2023/05/12 10:25:44;;;;;;;11.32;4.20;;;;;;;22.37;68.08;101517.00;5081379;28;20103;-75
2023/05/12 10:28:10;;;;;;;13.07;4.30;;;;;;;23.35;64.91;101527.00;5081313;28;20065;-76
2023/05/12 10:30:41;;;;;;;12.10;4.10;;;;;;;22.25;65.59;101523.66;5076263;28;20029;-75
2023/05/12 10:33:08;;;;;;;12.48;4.28;;;;;;;22.78;67.56;101527.25;5079027;28;20036;-75
2023/05/12 10:35:35;;;;;;;13.45;4.20;;;;;;;24.51;63.52;101525.91;5083168;28;20030;-76
2023/05/12 10:38:11;;;;;;;11.13;4.18;;;;;;;25.58;60.59;101525.53;5077319;28;20035;-76
2023/05/12 10:40:50;;;;;;;13.48;4.00;;;;;;;25.92;55.30;101536.56;5079341;28;20078;-75
2023/05/12 10:43:26;;;;;;;12.18;4.10;;;;;;;23.96;55.48;101529.97;5077803;28;20033;-69
2023/05/12 10:46:20;;;;;;;10.73;3.78;;;;;;;23.48;62.61;101529.13;5081669;28;20024;-69
2023/05/12 10:49:04;;;;;;;8.48;3.55;;;;;;;22.96;61.95;101528.38;5081509;28;20036;-75
2023/05/12 10:51:31;;;;;;;11.68;3.90;;;;;;;23.75;58.44;101523.59;5084450;28;20162;-74
2023/05/12 10:54:03;;;;;;;8.88;3.83;;;;;;;23.37;57.34;101531.38;5085616;28;20408;-67
2023/05/12 10:56:30;;;;;;;9.70;4.03;;;;;;;23.12;60.22;101526.91;5081053;28;20035;-67
2023/05/12 10:59:16;;;;;;;13.15;4.43;;;;;;;22.64;60.62;101508.88;5088409;28;20028;-71
2023/05/12 11:01:54;;;;;;;12.73;4.10;;;;;;;21.32;65.17;101532.84;5090790;28;20024;-72
2023/05/12 11:04:24;;;;;;;13.02;4.35;;;;;;;20.87;66.56;101535.00;5071942;28;20028;-73